createdAt,value
2023-04-08T00:00:43.084Z,25.30
2023-04-08T00:01:43.116Z,29.20
2023-04-08T00:02:43.242Z,29.30
2023-04-08T00:03:43.161Z,28.30
2023-04-08T00:04:43.073Z,27.90
2023-04-08T00:05:43.040Z,28.10
2023-04-08T00:06:43.080Z,30.10
2023-04-08T00:07:43.019Z,28.50
2023-04-08T00:08:42.999Z,28.80
2023-04-08T00:09:43.000Z,28.90
2023-04-08T00:10:43.018Z,28.60
2023-04-08T00:11:42.972Z,25.70
2023-04-08T00:12:42.952Z,29.60
2023-04-08T00:13:42.940Z,29.80
2023-04-08T00:14:42.980Z,25.00
2023-04-08T00:15:42.925Z,25.20
2023-04-08T00:16:43.033Z,26.80
2023-04-08T00:17:43.000Z,23.60
2023-04-08T00:18:42.926Z,30.80
2023-04-08T00:19:42.930Z,29.50
2023-04-08T00:20:42.869Z,27.50
2023-04-08T00:21:42.870Z,24.40
2023-04-08T00:22:42.873Z,25.30
2023-04-08T00:23:42.834Z,24.20
2023-04-08T00:24:42.822Z,27.80
2023-04-08T00:25:42.813Z,25.70
2023-04-08T00:26:42.813Z,24.80
2023-04-08T00:27:42.786Z,25.70
2023-04-08T00:28:42.780Z,27.10
2023-04-08T00:29:42.800Z,29.70
2023-04-08T00:30:42.780Z,30.80
2023-04-08T00:31:42.744Z,27.40
2023-04-08T00:32:42.746Z,29.40
2023-04-08T00:33:42.729Z,23.70
2023-04-08T00:34:42.754Z,25.50
2023-04-08T00:35:42.770Z,29.20
2023-04-08T00:36:42.695Z,25.50
2023-04-08T00:37:42.711Z,28.70
2023-04-08T00:38:42.702Z,24.90
2023-04-08T00:39:42.668Z,23.80
2023-04-08T00:40:42.665Z,27.00
2023-04-08T00:41:42.648Z,25.60
2023-04-08T00:42:42.623Z,22.70
2023-04-08T00:43:42.681Z,30.70
2023-04-08T00:44:42.602Z,25.90
2023-04-08T00:45:42.615Z,24.70
2023-04-08T00:46:42.613Z,27.00
2023-04-08T00:47:42.662Z,25.60
2023-04-08T00:48:42.554Z,24.90
2023-04-08T00:49:42.572Z,27.20
2023-04-08T00:50:42.559Z,25.00
2023-04-08T00:51:42.532Z,30.10
2023-04-08T00:52:42.524Z,25.00
2023-04-08T00:53:42.532Z,27.30
2023-04-08T00:54:42.491Z,25.90
2023-04-08T00:55:42.503Z,25.70
2023-04-08T00:56:42.486Z,25.40
2023-04-08T00:57:42.476Z,21.40
2023-04-08T00:58:42.464Z,24.40
2023-04-08T00:59:42.474Z,24.30
2023-04-08T01:00:42.464Z,24.40
2023-04-08T01:01:42.475Z,25.80
2023-04-08T01:02:42.625Z,26.50
2023-04-08T01:03:42.504Z,25.80
2023-04-08T01:04:42.399Z,28.30
2023-04-08T01:05:42.395Z,32.10
2023-04-08T01:06:42.382Z,25.90
2023-04-08T01:07:42.355Z,25.00
2023-04-08T01:08:42.357Z,31.30
2023-04-08T01:09:42.331Z,28.30
2023-04-08T01:10:42.338Z,27.00
2023-04-08T01:11:42.394Z,26.50
2023-04-08T01:12:42.297Z,24.30
2023-04-08T01:13:42.289Z,24.30
2023-04-08T01:14:42.310Z,31.40
2023-04-08T01:15:42.304Z,26.20
2023-04-08T01:16:42.259Z,27.30
2023-04-08T01:17:42.259Z,27.60
2023-04-08T01:18:42.228Z,28.00
2023-04-08T01:19:42.253Z,25.10
2023-04-08T01:20:42.225Z,27.60
2023-04-08T01:21:42.218Z,25.00
2023-04-08T01:22:42.196Z,26.30
2023-04-08T01:23:42.202Z,25.90
2023-04-08T01:24:42.196Z,28.30
2023-04-08T01:25:42.196Z,26.20
2023-04-08T01:26:42.154Z,25.70
2023-04-08T01:27:42.172Z,24.40
2023-04-08T01:28:42.156Z,27.50
2023-04-08T01:29:42.130Z,25.80
2023-04-08T01:30:42.101Z,26.00
2023-04-08T01:31:42.150Z,26.70
2023-04-08T01:32:42.137Z,28.20
2023-04-08T01:33:42.062Z,28.20
2023-04-08T01:34:42.070Z,27.00
2023-04-08T01:35:42.083Z,31.00
2023-04-08T01:36:42.068Z,29.10
2023-04-08T01:37:42.070Z,28.50
2023-04-08T01:38:42.091Z,31.20
2023-04-08T01:39:42.015Z,29.30
2023-04-08T01:40:42.088Z,32.10
2023-04-08T01:41:41.977Z,27.90
2023-04-08T01:42:41.973Z,28.80
2023-04-08T01:43:41.970Z,30.90
2023-04-08T01:44:41.985Z,28.10
2023-04-08T01:45:41.944Z,25.80
2023-04-08T01:46:41.957Z,30.00
2023-04-08T01:47:41.951Z,27.90
2023-04-08T01:48:41.930Z,29.20
2023-04-08T01:49:41.911Z,25.20
2023-04-08T01:50:41.949Z,27.90
2023-04-08T01:51:41.874Z,27.50
2023-04-08T01:52:41.878Z,32.30
2023-04-08T01:53:41.856Z,29.00
2023-04-08T01:54:41.914Z,29.00
2023-04-08T01:55:41.836Z,26.90
2023-04-08T01:56:41.839Z,26.90
2023-04-08T01:57:41.808Z,28.70
2023-04-08T01:58:41.818Z,30.00
2023-04-08T01:59:41.838Z,28.40
2023-04-08T02:00:41.776Z,25.10
2023-04-08T02:01:41.907Z,27.80
2023-04-08T02:02:42.096Z,30.20
2023-04-08T02:03:41.797Z,29.80
2023-04-08T02:04:41.957Z,27.40
2023-04-08T02:05:41.728Z,31.20
2023-04-08T02:06:41.737Z,26.50
2023-04-08T02:07:41.724Z,34.10
2023-04-08T02:08:41.705Z,34.30
2023-04-08T02:09:41.692Z,29.90
2023-04-08T02:10:41.673Z,26.80
2023-04-08T02:11:41.718Z,33.40
2023-04-08T02:12:41.687Z,31.10
2023-04-08T02:13:41.647Z,33.10
2023-04-08T02:14:41.723Z,35.90
2023-04-08T02:15:41.629Z,33.30
2023-04-08T02:16:41.651Z,32.50
2023-04-08T02:17:41.683Z,31.20
2023-04-08T02:18:41.622Z,33.00
2023-04-08T02:19:41.581Z,30.70
2023-04-08T02:20:41.559Z,33.00
2023-04-08T02:21:41.563Z,37.60
2023-04-08T02:22:41.597Z,33.70
2023-04-08T02:23:41.535Z,33.10
2023-04-08T02:24:41.548Z,28.50
2023-04-08T02:25:41.505Z,30.90
2023-04-08T02:26:41.591Z,32.20
2023-04-08T02:27:41.494Z,32.50
2023-04-08T02:28:41.485Z,35.00
2023-04-08T02:29:41.496Z,34.60
2023-04-08T02:30:41.455Z,30.50
2023-04-08T02:31:41.500Z,32.70
2023-04-08T02:32:41.492Z,33.40
2023-04-08T02:33:41.469Z,29.60
2023-04-08T02:34:41.452Z,33.30
2023-04-08T02:35:41.482Z,35.90
2023-04-08T02:36:41.489Z,34.70
2023-04-08T02:37:41.381Z,36.00
2023-04-08T02:38:41.379Z,38.00
2023-04-08T02:39:41.360Z,35.20
2023-04-08T02:40:41.349Z,38.90
2023-04-08T02:41:41.336Z,37.10
2023-04-08T02:42:41.327Z,35.60
2023-04-08T02:43:41.306Z,37.30
2023-04-08T02:44:41.337Z,40.30
2023-04-08T02:45:41.313Z,32.00
2023-04-08T02:46:41.291Z,39.00
2023-04-08T02:47:41.318Z,41.20
2023-04-08T02:48:41.268Z,37.10
2023-04-08T02:49:41.302Z,36.00
2023-04-08T02:50:41.263Z,37.60
2023-04-08T02:51:41.222Z,35.20
2023-04-08T02:52:41.217Z,37.40
2023-04-08T02:53:41.599Z,36.20
2023-04-08T02:54:41.267Z,38.40
2023-04-08T02:55:41.179Z,36.40
2023-04-08T02:56:41.176Z,38.20
2023-04-08T02:57:41.178Z,32.00
2023-04-08T02:58:41.173Z,42.40
2023-04-08T02:59:41.168Z,39.10
2023-04-08T03:00:41.208Z,42.30
2023-04-08T03:01:41.168Z,36.30
2023-04-08T03:02:41.254Z,40.70
2023-04-08T03:03:41.231Z,39.30
2023-04-08T03:04:41.108Z,39.10
2023-04-08T03:05:41.133Z,43.30
2023-04-08T03:06:41.148Z,39.20
2023-04-08T03:07:41.065Z,41.80
2023-04-08T03:08:41.051Z,44.30
2023-04-08T03:09:41.044Z,38.90
2023-04-08T03:10:41.021Z,43.50
2023-04-08T03:11:40.999Z,45.60
2023-04-08T03:12:40.998Z,41.90
2023-04-08T03:13:40.982Z,45.30
2023-04-08T03:14:41.063Z,39.20
2023-04-08T03:15:41.027Z,48.50
2023-04-08T03:16:41.043Z,45.90
2023-04-08T03:17:41.027Z,44.00
2023-04-08T03:18:40.945Z,51.10
2023-04-08T03:19:40.920Z,45.50
2023-04-08T03:20:40.937Z,47.30
2023-04-08T03:21:40.951Z,48.50
2023-04-08T03:22:40.890Z,44.30
2023-04-08T03:23:40.948Z,45.50
2023-04-08T03:24:40.897Z,44.80
2023-04-08T03:25:40.946Z,47.30
2023-04-08T03:26:41.082Z,46.40
2023-04-08T03:27:40.917Z,47.10
2023-04-08T03:28:40.845Z,52.00
2023-04-08T03:29:41.132Z,48.80
2023-04-08T03:30:40.987Z,49.40
2023-04-08T03:31:40.915Z,42.20
2023-04-08T03:32:40.877Z,50.10
2023-04-08T03:33:40.962Z,42.80
2023-04-08T03:34:40.863Z,46.10
2023-04-08T03:35:40.853Z,44.70
2023-04-08T03:36:40.910Z,41.60
2023-04-08T03:37:40.728Z,46.10
2023-04-08T03:38:40.962Z,39.20
2023-04-08T03:39:41.288Z,43.70
2023-04-08T03:40:40.852Z,48.90
2023-04-08T03:41:40.683Z,43.30
2023-04-08T03:42:40.685Z,50.40
2023-04-08T03:43:40.664Z,45.10
2023-04-08T03:44:41.702Z,43.50
2023-04-08T03:45:40.921Z,44.20
2023-04-08T03:46:40.915Z,46.80
2023-04-08T03:47:41.389Z,47.50
2023-04-08T03:48:40.627Z,50.40
2023-04-08T03:49:40.629Z,44.90
2023-04-08T03:50:40.614Z,44.20
2023-04-08T03:51:40.577Z,44.80
2023-04-08T03:52:40.602Z,43.50
2023-04-08T03:53:40.594Z,47.70
2023-04-08T03:54:40.559Z,41.40
2023-04-08T03:55:40.591Z,48.10
2023-04-08T03:56:40.520Z,49.10
2023-04-08T03:57:40.508Z,45.50
2023-04-08T03:58:40.501Z,44.10
2023-04-08T03:59:40.577Z,46.70
2023-04-08T04:00:40.598Z,49.10
2023-04-08T04:01:41.930Z,48.50
2023-04-08T04:02:40.566Z,50.50
2023-04-08T04:03:40.549Z,50.70
2023-04-08T04:04:40.503Z,51.40
2023-04-08T04:05:40.440Z,49.70
2023-04-08T04:06:40.422Z,48.20
2023-04-08T04:07:40.397Z,52.70
2023-04-08T04:08:40.387Z,58.30
2023-04-08T04:09:40.384Z,49.70
2023-04-08T04:10:40.425Z,53.50
2023-04-08T04:11:40.349Z,56.10
2023-04-08T04:12:40.344Z,57.70
2023-04-08T04:13:40.370Z,53.70
2023-04-08T04:14:40.334Z,53.80
2023-04-08T04:15:40.392Z,58.30
2023-04-08T04:16:40.308Z,50.80
2023-04-08T04:17:40.319Z,51.60
2023-04-08T04:18:40.353Z,52.50
2023-04-08T04:19:40.278Z,52.00
2023-04-08T04:20:40.273Z,52.60
2023-04-08T04:21:40.325Z,56.50
2023-04-08T04:22:40.249Z,56.20
2023-04-08T04:23:40.353Z,50.00
2023-04-08T04:24:40.232Z,61.10
2023-04-08T04:25:40.258Z,53.80
2023-04-08T04:26:40.192Z,55.00
2023-04-08T04:27:40.182Z,52.00
2023-04-08T04:28:40.222Z,53.40
2023-04-08T04:29:40.155Z,55.50
2023-04-08T04:30:40.161Z,53.40
2023-04-08T04:31:40.257Z,56.10
2023-04-08T04:32:40.197Z,54.30
2023-04-08T04:33:40.110Z,53.70
2023-04-08T04:34:40.132Z,51.90
2023-04-08T04:35:40.113Z,53.50
2023-04-08T04:36:40.100Z,54.80
2023-04-08T04:37:40.086Z,54.20
2023-04-08T04:38:40.087Z,54.10
2023-04-08T04:39:40.045Z,58.90
2023-04-08T04:40:40.056Z,56.50
2023-04-08T04:41:40.030Z,54.90
2023-04-08T04:42:40.031Z,55.00
2023-04-08T04:43:40.088Z,53.50
2023-04-08T04:44:40.012Z,55.90
2023-04-08T04:45:40.005Z,50.40
2023-04-08T04:46:40.023Z,51.60
2023-04-08T04:47:40.037Z,60.60
2023-04-08T04:48:39.950Z,63.10
2023-04-08T04:49:39.956Z,58.90
2023-04-08T04:50:39.938Z,61.10
2023-04-08T04:51:39.926Z,56.40
2023-04-08T04:52:39.918Z,56.30
2023-04-08T04:53:39.936Z,57.50
2023-04-08T04:54:39.894Z,54.50
2023-04-08T04:55:39.884Z,51.50
2023-04-08T04:56:39.960Z,61.50
2023-04-08T04:57:39.857Z,57.20
2023-04-08T04:58:39.851Z,57.50
2023-04-08T04:59:39.891Z,53.80
2023-04-08T05:00:39.819Z,56.00
2023-04-08T05:01:39.908Z,58.00
2023-04-08T05:02:39.983Z,57.50
2023-04-08T05:03:39.857Z,58.70
2023-04-08T05:04:39.823Z,60.70
2023-04-08T05:05:39.761Z,60.50
2023-04-08T05:06:39.767Z,61.20
2023-04-08T05:07:39.770Z,58.40
2023-04-08T05:08:39.756Z,58.70
2023-04-08T05:09:39.731Z,58.50
2023-04-08T05:10:39.718Z,64.10
2023-04-08T05:11:39.770Z,59.10
2023-04-08T05:12:39.694Z,64.20
2023-04-08T05:13:39.700Z,64.30
2023-04-08T05:14:39.673Z,68.70
2023-04-08T05:15:39.684Z,66.90
2023-04-08T05:16:39.701Z,62.60
2023-04-08T05:17:39.747Z,68.70
2023-04-08T05:18:39.645Z,60.40
2023-04-08T05:19:39.629Z,65.90
2023-04-08T05:20:39.623Z,61.40
2023-04-08T05:21:39.684Z,65.60
2023-04-08T05:22:39.591Z,64.10
2023-04-08T05:23:39.602Z,59.00
2023-04-08T05:24:39.571Z,58.60
2023-04-08T05:25:39.562Z,62.20
2023-04-08T05:26:39.557Z,62.20
2023-04-08T05:27:39.540Z,60.50
2023-04-08T05:28:39.545Z,59.90
2023-04-08T05:29:39.544Z,58.90
2023-04-08T05:30:39.529Z,59.60
2023-04-08T05:31:39.553Z,59.00
2023-04-08T05:32:39.820Z,60.10
2023-04-08T05:33:39.563Z,61.40
2023-04-08T05:34:39.507Z,61.40
2023-04-08T05:35:39.529Z,62.00
2023-04-08T05:36:39.459Z,55.30
2023-04-08T05:37:39.538Z,59.30
2023-04-08T05:38:39.435Z,65.00
2023-04-08T05:39:39.413Z,58.20
2023-04-08T05:40:39.436Z,62.50
2023-04-08T05:41:39.396Z,60.60
2023-04-08T05:42:39.372Z,63.80
2023-04-08T05:43:39.439Z,66.20
2023-04-08T05:44:39.427Z,60.60
2023-04-08T05:45:39.343Z,65.30
2023-04-08T05:46:39.359Z,64.20
2023-04-08T05:47:39.453Z,63.10
2023-04-08T05:48:39.320Z,67.20
2023-04-08T05:49:39.302Z,62.10
2023-04-08T05:50:39.288Z,63.60
2023-04-08T05:51:39.326Z,63.10
2023-04-08T05:52:39.266Z,60.60
2023-04-08T05:53:39.316Z,66.40
2023-04-08T05:54:39.247Z,65.00
2023-04-08T05:55:39.250Z,58.90
2023-04-08T05:56:39.225Z,66.70
2023-04-08T05:57:39.265Z,64.10
2023-04-08T05:58:39.229Z,64.10
2023-04-08T05:59:39.192Z,63.90
2023-04-08T06:00:39.171Z,65.10
2023-04-08T06:01:39.234Z,60.60
2023-04-08T06:02:39.392Z,65.20
2023-04-08T06:03:39.274Z,63.30
2023-04-08T06:04:39.216Z,60.60
2023-04-08T06:05:39.127Z,67.10
2023-04-08T06:06:39.225Z,61.50
2023-04-08T06:07:39.129Z,66.60
2023-04-08T06:08:39.088Z,64.60
2023-04-08T06:09:39.076Z,60.80
2023-04-08T06:10:39.067Z,63.00
2023-04-08T06:11:39.054Z,65.90
2023-04-08T06:12:39.072Z,63.00
2023-04-08T06:13:39.049Z,66.10
2023-04-08T06:14:39.023Z,66.00
2023-04-08T06:15:39.011Z,65.10
2023-04-08T06:16:39.081Z,56.20
2023-04-08T06:17:39.064Z,60.20
2023-04-08T06:18:39.058Z,60.60
2023-04-08T06:19:38.977Z,64.90
2023-04-08T06:20:39.020Z,58.90
2023-04-08T06:21:38.971Z,63.50
2023-04-08T06:22:38.942Z,62.10
2023-04-08T06:23:38.945Z,62.20
2023-04-08T06:24:38.907Z,61.60
2023-04-08T06:25:38.916Z,60.20
2023-04-08T06:26:39.074Z,64.70
2023-04-08T06:27:38.904Z,62.90
2023-04-08T06:28:38.874Z,61.40
2023-04-08T06:29:40.543Z,57.20
2023-04-08T06:30:38.925Z,65.20
2023-04-08T06:31:38.965Z,59.80
2023-04-08T06:32:38.913Z,58.60
2023-04-08T06:33:38.821Z,61.10
2023-04-08T06:34:38.829Z,58.90
2023-04-08T06:35:38.852Z,53.90
2023-04-08T06:36:38.808Z,61.90
2023-04-08T06:37:38.875Z,57.50
2023-04-08T06:38:38.776Z,59.90
2023-04-08T06:39:38.771Z,57.20
2023-04-08T06:40:38.772Z,54.70
2023-04-08T06:41:38.751Z,56.80
2023-04-08T06:42:38.818Z,58.30
2023-04-08T06:43:38.823Z,60.80
2023-04-08T06:44:38.704Z,52.90
2023-04-08T06:45:38.703Z,60.30
2023-04-08T06:46:38.691Z,57.90
2023-04-08T06:47:38.818Z,53.90
2023-04-08T06:48:38.664Z,55.80
2023-04-08T06:49:38.641Z,59.50
2023-04-08T06:50:38.641Z,53.70
2023-04-08T06:51:38.624Z,55.40
2023-04-08T06:52:38.679Z,53.40
2023-04-08T06:53:38.632Z,55.30
2023-04-08T06:54:38.599Z,53.00
2023-04-08T06:55:38.586Z,56.50
2023-04-08T06:56:38.572Z,64.00
2023-04-08T06:57:38.608Z,56.20
2023-04-08T06:58:38.696Z,54.20
2023-04-08T06:59:38.534Z,60.10
2023-04-08T07:00:38.529Z,63.40
2023-04-08T07:01:38.606Z,61.00
2023-04-08T07:02:38.666Z,60.50
2023-04-08T07:03:38.573Z,65.60
2023-04-08T07:04:38.504Z,63.10
2023-04-08T07:05:38.476Z,65.20
2023-04-08T07:06:38.477Z,58.80
2023-04-08T07:07:38.506Z,60.50
2023-04-08T07:08:38.520Z,61.00
2023-04-08T07:09:38.462Z,65.90
2023-04-08T07:10:38.446Z,65.90
2023-04-08T07:11:38.443Z,66.80
2023-04-08T07:12:38.418Z,63.60
2023-04-08T07:13:38.396Z,62.50
2023-04-08T07:14:38.383Z,62.50
2023-04-08T07:15:38.408Z,62.80
2023-04-08T07:16:38.480Z,64.60
2023-04-08T07:17:38.388Z,65.60
2023-04-08T07:18:38.375Z,68.70
2023-04-08T07:19:38.333Z,62.60
2023-04-08T07:20:38.394Z,62.20
2023-04-08T07:21:38.342Z,62.70
2023-04-08T07:22:38.311Z,62.90
2023-04-08T07:23:38.294Z,62.50
2023-04-08T07:24:38.275Z,59.30
2023-04-08T07:25:38.264Z,59.70
2023-04-08T07:26:38.275Z,56.50
2023-04-08T07:27:38.272Z,56.60
2023-04-08T07:28:38.253Z,57.40
2023-04-08T07:29:38.235Z,55.60
2023-04-08T07:30:38.252Z,51.10
2023-04-08T07:31:38.263Z,55.10
2023-04-08T07:32:38.274Z,55.20
2023-04-08T07:33:38.230Z,50.70
2023-04-08T07:34:38.186Z,52.60
2023-04-08T07:35:38.200Z,55.00
2023-04-08T07:36:38.151Z,48.50
2023-04-08T07:37:38.195Z,50.10
2023-04-08T07:38:38.132Z,49.60
2023-04-08T07:39:38.184Z,52.00
2023-04-08T07:40:38.126Z,56.00
2023-04-08T07:41:38.114Z,51.10
2023-04-08T07:42:39.673Z,52.50
2023-04-08T07:43:38.102Z,49.60
2023-04-08T07:44:38.081Z,51.50
2023-04-08T07:45:38.053Z,50.90
2023-04-08T07:46:38.130Z,49.50
2023-04-08T07:47:38.150Z,52.10
2023-04-08T07:48:38.027Z,50.20
2023-04-08T07:49:38.022Z,47.70
2023-04-08T07:51:08.991Z,51.40
2023-04-08T07:51:38.992Z,48.40
2023-04-08T07:52:38.012Z,51.10
2023-04-08T07:53:38.011Z,49.70
2023-04-08T07:54:38.348Z,47.10
2023-04-08T07:55:37.944Z,50.30
2023-04-08T07:56:38.003Z,47.30
2023-04-08T07:57:37.942Z,49.50
2023-04-08T07:58:37.975Z,45.20
2023-04-08T07:59:37.909Z,48.40
2023-04-08T08:00:37.897Z,45.90
2023-04-08T08:01:37.979Z,53.20
2023-04-08T08:02:38.006Z,50.90
2023-04-08T08:03:38.043Z,53.10
2023-04-08T08:04:38.147Z,49.20
2023-04-08T08:05:37.868Z,52.20
2023-04-08T08:06:37.851Z,50.20
2023-04-08T08:07:37.827Z,47.50
2023-04-08T08:08:37.800Z,48.10
2023-04-08T08:09:37.795Z,46.40
2023-04-08T08:10:37.780Z,47.50
2023-04-08T08:11:37.775Z,47.50
2023-04-08T08:12:37.778Z,47.20
2023-04-08T08:13:37.783Z,46.10
2023-04-08T08:14:37.757Z,52.30
2023-04-08T08:15:37.757Z,48.80
2023-04-08T08:16:37.725Z,47.10
2023-04-08T08:17:37.818Z,49.50
2023-04-08T08:18:37.697Z,45.00
2023-04-08T08:19:37.719Z,48.70
2023-04-08T08:20:37.699Z,47.30
2023-04-08T08:21:37.680Z,45.20
2023-04-08T08:22:44.308Z,44.20
2023-04-08T08:23:38.748Z,49.80
2023-04-08T08:24:37.629Z,47.70
2023-04-08T08:25:37.617Z,48.00
2023-04-08T08:26:37.635Z,51.80
2023-04-08T08:27:37.602Z,48.00
2023-04-08T08:28:37.591Z,50.00
2023-04-08T08:29:37.603Z,49.10
2023-04-08T08:30:37.559Z,49.30
2023-04-08T08:31:37.652Z,48.20
2023-04-08T08:32:37.571Z,49.90
2023-04-08T08:33:37.557Z,47.40
2023-04-08T08:34:37.529Z,48.30
2023-04-08T08:35:37.555Z,47.80
2023-04-08T08:36:37.491Z,49.30
2023-04-08T08:37:37.503Z,46.70
2023-04-08T08:38:37.474Z,47.00
2023-04-08T08:39:37.463Z,50.10
2023-04-08T08:40:37.456Z,48.00
2023-04-08T08:41:37.455Z,50.30
2023-04-08T08:42:37.441Z,47.80
2023-04-08T08:43:37.431Z,47.00
2023-04-08T08:44:37.411Z,49.50
2023-04-08T08:45:37.392Z,50.60
2023-04-08T08:46:37.424Z,45.40
2023-04-08T08:47:37.447Z,47.80
2023-04-08T08:48:37.368Z,47.70
2023-04-08T08:49:37.364Z,49.00
2023-04-08T08:50:37.352Z,44.90
2023-04-08T08:51:37.332Z,46.50
2023-04-08T08:52:37.617Z,45.80
2023-04-08T08:53:37.310Z,46.70
2023-04-08T08:54:37.297Z,43.80
2023-04-08T08:56:37.304Z,48.00
2023-04-08T08:57:37.292Z,44.90
2023-04-08T08:58:37.257Z,44.40
2023-04-08T08:59:37.272Z,53.70
2023-04-08T09:00:37.233Z,48.10
2023-04-08T09:01:37.354Z,49.70
2023-04-08T09:02:37.400Z,49.50
2023-04-08T09:03:37.431Z,55.30
2023-04-08T09:04:37.258Z,51.30
2023-04-08T09:05:37.477Z,48.80
2023-04-08T09:06:37.171Z,53.20
2023-04-08T09:07:37.173Z,49.40
2023-04-08T09:08:37.166Z,48.60
2023-04-08T09:09:37.184Z,48.30
2023-04-08T09:10:37.127Z,53.80
2023-04-08T09:11:37.119Z,53.60
2023-04-08T09:12:37.142Z,55.00
2023-04-08T09:13:37.123Z,51.30
2023-04-08T09:14:37.078Z,52.00
2023-04-08T09:15:37.070Z,49.60
2023-04-08T09:16:37.113Z,49.80
2023-04-08T09:17:37.101Z,51.80
2023-04-08T09:18:37.039Z,50.40
2023-04-08T09:19:37.032Z,48.80
2023-04-08T09:20:37.017Z,48.00
2023-04-08T09:21:37.077Z,47.90
2023-04-08T09:22:37.047Z,49.10
2023-04-08T09:23:37.020Z,49.40
2023-04-08T09:24:36.984Z,49.90
2023-04-08T09:25:36.968Z,49.10
2023-04-08T09:26:36.954Z,50.00
2023-04-08T09:27:36.965Z,48.30
2023-04-08T09:28:36.944Z,49.80
2023-04-08T09:29:39.665Z,46.60
2023-04-08T09:30:36.904Z,50.60
2023-04-08T09:31:36.997Z,47.90
2023-04-08T09:32:36.911Z,46.90
2023-04-08T09:33:36.877Z,51.30
2023-04-08T09:34:37.002Z,47.50
2023-04-08T09:35:36.891Z,44.60
2023-04-08T09:36:36.842Z,44.00
2023-04-08T09:37:36.854Z,47.90
2023-04-08T09:38:36.820Z,48.20
2023-04-08T09:39:36.847Z,41.00
2023-04-08T09:40:36.839Z,46.80
2023-04-08T09:41:36.798Z,45.10
2023-04-08T09:42:36.802Z,44.90
2023-04-08T09:43:36.779Z,48.70
2023-04-08T09:44:36.853Z,42.50
2023-04-08T09:45:36.845Z,46.50
2023-04-08T09:46:36.747Z,44.10
2023-04-08T09:47:36.805Z,41.90
2023-04-08T09:48:36.712Z,43.90
2023-04-08T09:49:36.753Z,44.90
2023-04-08T09:50:36.695Z,45.50
2023-04-08T09:51:36.686Z,43.30
2023-04-08T09:52:36.720Z,43.40
2023-04-08T09:53:36.697Z,44.00
2023-04-08T09:54:36.657Z,41.30
2023-04-08T09:55:36.708Z,45.60
2023-04-08T09:56:36.628Z,41.30
2023-04-08T09:57:36.641Z,41.40
2023-04-08T09:58:36.609Z,42.20
2023-04-08T09:59:36.758Z,39.50
2023-04-08T10:00:36.631Z,40.00
2023-04-08T10:01:36.837Z,39.80
2023-04-08T10:02:36.687Z,43.20
2023-04-08T10:03:36.703Z,38.40
2023-04-08T10:04:36.652Z,42.50
2023-04-08T10:05:36.534Z,39.40
2023-04-08T10:06:36.553Z,43.80
2023-04-08T10:07:36.570Z,41.50
2023-04-08T10:08:36.509Z,41.10
2023-04-08T10:09:36.493Z,39.60
2023-04-08T10:10:36.507Z,38.20
2023-04-08T10:11:36.487Z,37.80
2023-04-08T10:12:36.486Z,35.80
2023-04-08T10:13:36.502Z,37.90
2023-04-08T10:14:36.462Z,36.30
2023-04-08T10:15:36.428Z,37.70
2023-04-08T10:16:36.423Z,36.30
2023-04-08T10:17:36.481Z,36.30
2023-04-08T10:18:36.386Z,33.10
2023-04-08T10:19:36.413Z,35.70
2023-04-08T10:20:36.483Z,35.50
2023-04-08T10:21:36.384Z,34.40
2023-04-08T10:22:36.368Z,33.50
2023-04-08T10:23:36.337Z,33.10
2023-04-08T10:24:36.311Z,34.50
2023-04-08T10:25:36.310Z,35.10
2023-04-08T10:26:36.360Z,32.90
2023-04-08T10:27:36.319Z,35.00
2023-04-08T10:28:36.283Z,32.90
2023-04-08T10:29:36.282Z,36.30
2023-04-08T10:30:36.249Z,33.00
2023-04-08T10:31:36.312Z,34.60
2023-04-08T10:32:36.294Z,34.00
2023-04-08T10:33:39.220Z,36.00
2023-04-08T10:34:36.203Z,36.30
2023-04-08T10:35:36.228Z,38.80
2023-04-08T10:36:36.184Z,36.10
2023-04-08T10:37:36.180Z,37.50
2023-04-08T10:38:36.174Z,36.90
2023-04-08T10:39:38.272Z,37.20
2023-04-08T10:40:36.129Z,37.90
2023-04-08T10:41:36.199Z,38.20
2023-04-08T10:42:36.102Z,38.80
2023-04-08T10:43:36.112Z,37.80
2023-04-08T10:44:36.088Z,36.90
2023-04-08T10:45:36.146Z,35.90
2023-04-08T10:46:36.205Z,35.40
2023-04-08T10:47:36.207Z,38.20
2023-04-08T10:48:36.096Z,37.10
2023-04-08T10:49:36.174Z,36.50
2023-04-08T10:50:36.070Z,36.20
2023-04-08T10:51:36.017Z,38.00
2023-04-08T10:52:36.013Z,38.00
2023-04-08T10:53:36.090Z,37.40
2023-04-08T10:54:35.982Z,37.40
2023-04-08T10:55:35.982Z,38.00
2023-04-08T10:56:35.980Z,39.50
2023-04-08T10:57:35.954Z,37.00
2023-04-08T10:58:35.939Z,41.00
2023-04-08T10:59:35.930Z,38.80
2023-04-08T11:00:35.914Z,38.10
2023-04-08T11:01:35.959Z,39.70
2023-04-08T11:02:36.031Z,40.30
2023-04-08T11:03:36.352Z,44.00
2023-04-08T11:04:36.029Z,41.40
2023-04-08T11:05:35.882Z,41.60
2023-04-08T11:06:35.874Z,45.60
2023-04-08T11:07:35.873Z,42.50
2023-04-08T11:08:35.942Z,47.70
2023-04-08T11:09:35.902Z,47.90
2023-04-08T11:10:35.810Z,47.80
2023-04-08T11:11:35.853Z,48.80
2023-04-08T11:12:35.806Z,50.60
2023-04-08T11:13:35.787Z,49.60
2023-04-08T11:14:35.811Z,50.30
2023-04-08T11:15:35.836Z,49.20
2023-04-08T11:16:35.879Z,46.90
2023-04-08T11:17:35.796Z,43.50
2023-04-08T11:18:35.793Z,50.40
2023-04-08T11:19:36.115Z,54.40
2023-04-08T11:20:35.751Z,57.10
2023-04-08T11:21:35.700Z,59.70
2023-04-08T11:22:35.690Z,59.20
2023-04-08T11:23:35.671Z,63.20
2023-04-08T11:24:35.659Z,57.20
2023-04-08T11:25:35.650Z,62.20
2023-04-08T11:26:35.649Z,59.50
2023-04-08T11:27:35.637Z,59.10
2023-04-08T11:28:35.619Z,53.50
2023-04-08T11:29:35.614Z,56.50
2023-04-08T11:30:35.595Z,54.40
2023-04-08T11:31:35.666Z,58.80
2023-04-08T11:32:35.596Z,63.70
2023-04-08T11:33:35.578Z,60.60
2023-04-08T11:34:35.552Z,60.90
2023-04-08T11:35:35.589Z,55.10
2023-04-08T11:36:35.586Z,56.00
2023-04-08T11:37:35.641Z,56.20
2023-04-08T11:38:35.519Z,54.00
2023-04-08T11:39:35.507Z,50.50
2023-04-08T11:40:35.482Z,52.20
2023-04-08T11:41:35.513Z,57.00
2023-04-08T11:42:35.463Z,52.60
2023-04-08T11:43:35.519Z,52.30
2023-04-08T11:44:35.708Z,49.40
2023-04-08T11:45:36.363Z,51.00
2023-04-08T11:46:35.657Z,50.60
2023-04-08T11:47:35.484Z,49.20
2023-04-08T11:48:35.397Z,48.80
2023-04-08T11:49:35.481Z,49.30
2023-04-08T11:50:35.438Z,50.10
2023-04-08T11:51:35.422Z,46.60
2023-04-08T11:52:35.419Z,45.40
2023-04-08T11:53:35.347Z,48.00
2023-04-08T11:54:35.325Z,46.00
2023-04-08T11:55:35.338Z,45.20
2023-04-08T11:56:35.318Z,47.40
2023-04-08T11:57:35.310Z,46.00
2023-04-08T11:58:35.324Z,43.70
2023-04-08T11:59:35.280Z,43.40
2023-04-08T12:00:35.285Z,44.40
2023-04-08T12:01:35.322Z,44.10
2023-04-08T12:02:35.466Z,43.40
2023-04-08T12:03:35.391Z,41.00
2023-04-08T12:04:35.297Z,38.70
2023-04-08T12:05:35.348Z,45.80
2023-04-08T12:06:35.364Z,42.80
2023-04-08T12:07:35.231Z,41.00
2023-04-08T12:08:35.197Z,43.90
2023-04-08T12:09:35.234Z,43.90
2023-04-08T12:10:35.211Z,42.90
2023-04-08T12:11:35.160Z,44.80
2023-04-08T12:12:35.159Z,46.10
2023-04-08T12:13:35.157Z,43.00
2023-04-08T12:14:35.150Z,42.40
2023-04-08T12:15:35.159Z,44.20
2023-04-08T12:16:35.365Z,45.10
2023-04-08T12:17:35.578Z,42.70
2023-04-08T12:18:35.141Z,44.80
2023-04-08T12:19:37.145Z,41.40
2023-04-08T12:20:35.155Z,44.90
2023-04-08T12:21:35.095Z,43.00
2023-04-08T12:22:35.055Z,46.20
2023-04-08T12:23:35.029Z,41.50
2023-04-08T12:24:35.008Z,42.90
2023-04-08T12:25:35.004Z,43.30
2023-04-08T12:26:35.161Z,44.70
2023-04-08T12:27:35.028Z,42.10
2023-04-08T12:28:34.965Z,44.30
2023-04-08T12:29:34.981Z,41.00
2023-04-08T12:30:35.031Z,40.50
2023-04-08T12:31:35.039Z,44.50
2023-04-08T12:32:34.984Z,41.30
2023-04-08T12:33:34.909Z,44.20
2023-04-08T12:34:34.900Z,41.60
2023-04-08T12:35:34.932Z,43.30
2023-04-08T12:36:34.945Z,43.90
2023-04-08T12:37:34.915Z,43.50
2023-04-08T12:38:34.870Z,40.20
2023-04-08T12:39:34.859Z,43.30
2023-04-08T12:40:34.866Z,45.30
2023-04-08T12:41:34.884Z,42.50
2023-04-08T12:42:34.864Z,43.40
2023-04-08T12:43:34.836Z,45.20
2023-04-08T12:44:34.824Z,39.60
2023-04-08T12:45:34.807Z,39.40
2023-04-08T12:46:34.869Z,35.90
2023-04-08T12:47:34.796Z,37.80
2023-04-08T12:48:34.741Z,36.10
2023-04-08T12:49:46.619Z,39.90
2023-04-08T12:50:35.731Z,37.80
2023-04-08T12:51:34.715Z,43.40
2023-04-08T12:52:34.715Z,38.90
2023-04-08T12:53:34.702Z,40.10